Time;durP1;ratioP1;P1;durP2;ratioP2;P2;SDS_P1;SDS_P2;PMS_P1;PMS_P2;Temp;Humidity;BMP_temperature;BMP_pressure;BME280_temperature;BME280_humidity;BME280_pressure;Samples;Min_cycle;Max_cycle;Signal;HPM_P1;HPM_P2
2021/01/14 00:01:40;;;;;;;111.80;56.45;;;;;;;1.12;84.95;100153.75;1733712;82;21149;-84
2021/01/14 00:04:07;;;;;;;111.30;56.65;;;;;;;1.13;84.87;100153.37;1733728;82;22065;-84
2021/01/14 00:06:34;;;;;;;109.30;56.55;;;;;;;1.13;84.79;100161.14;1750415;81;21575;-84
2021/01/14 00:09:01;;;;;;;115.37;56.33;;;;;;;1.13;84.83;100159.84;1787939;80;21195;-83
2021/01/14 00:11:28;;;;;;;106.95;54.65;;;;;;;1.11;84.77;100159.77;1787653;80;21191;-83
2021/01/14 00:13:56;;;;;;;108.17;55.15;;;;;;;1.11;84.76;100156.28;1787967;80;21209;-84
2021/01/14 00:16:23;;;;;;;111.17;55.03;;;;;;;1.10;84.76;100160.55;1787869;80;21940;-84
2021/01/14 00:19:11;;;;;;;109.65;55.20;;;;;;;1.11;84.80;100171.42;1787968;80;21168;-83
2021/01/14 00:21:44;;;;;;;104.07;53.95;;;;;;;1.10;84.76;100170.92;1787258;78;21208;-83
2021/01/14 00:24:11;;;;;;;112.28;56.73;;;;;;;1.11;84.86;100170.13;1787927;80;21187;-83
2021/01/14 00:26:40;;;;;;;117.95;58.90;;;;;;;1.13;84.94;100178.88;1788033;80;21140;-83
2021/01/14 00:29:07;;;;;;;105.78;55.83;;;;;;;1.14;84.86;100178.46;1787902;80;21894;-83
2021/01/14 00:31:35;;;;;;;105.80;56.10;;;;;;;1.13;84.88;100183.17;1787822;80;21141;-84
2021/01/14 00:34:02;;;;;;;108.30;54.30;;;;;;;1.14;84.87;100181.05;1787888;80;21646;-84
2021/01/14 00:39:27;;;;;;;107.93;56.27;;;;;;;1.19;84.96;100183.50;1889342;76;22678;-82
2021/01/14 00:41:55;;;;;;;105.92;54.48;;;;;;;1.19;85.08;100183.91;1857560;77;21146;-83
2021/01/14 00:44:33;;;;;;;108.37;55.55;;;;;;;1.22;85.01;100184.97;1857535;77;21870;-84
2021/01/14 00:47:08;;;;;;;110.50;56.05;;;;;;;1.21;84.95;100185.77;1857381;77;21106;-85
2021/01/14 00:49:35;;;;;;;110.28;57.20;;;;;;;1.18;84.92;100182.99;1857484;77;21131;-83
2021/01/14 00:52:13;;;;;;;106.00;56.20;;;;;;;1.14;84.80;100187.13;1857308;77;21660;-83
2021/01/14 00:54:40;;;;;;;116.85;58.55;;;;;;;1.07;84.63;100192.81;1857519;77;21126;-84
2021/01/14 00:57:09;;;;;;;137.68;60.25;;;;;;;0.95;84.53;100182.65;1857358;77;21878;-84
2021/01/14 00:59:38;;;;;;;119.10;58.87;;;;;;;0.87;84.52;100183.95;1857506;77;21158;-84
2021/01/14 01:02:05;;;;;;;119.57;59.50;;;;;;;0.76;84.39;100185.06;1856687;77;21122;-83
2021/01/14 01:04:32;;;;;;;129.60;64.92;;;;;;;0.66;84.49;100199.20;1857530;77;21087;-84
2021/01/14 01:06:59;;;;;;;86.25;45.92;;;;;;;0.62;84.68;100220.95;1826411;77;21609;-83
2021/01/14 01:09:26;;;;;;;102.58;55.90;;;;;;;0.55;84.76;100221.91;1857540;77;22897;-84
2021/01/14 01:11:54;;;;;;;111.80;55.08;;;;;;;0.41;84.72;100215.05;1857579;77;21170;-84
2021/01/14 01:14:23;;;;;;;99.50;50.45;;;;;;;0.35;85.11;100232.41;1857534;77;21058;-83
2021/01/14 01:16:57;;;;;;;101.00;50.92;;;;;;;0.26;85.09;100240.06;1857334;77;21557;-83
2021/01/14 01:19:28;;;;;;;114.15;49.25;;;;;;;0.17;85.24;100236.15;1857671;77;21031;-83
2021/01/14 01:21:55;;;;;;;93.45;46.25;;;;;;;0.16;85.65;100236.94;1857414;77;21880;-83
2021/01/14 01:24:22;;;;;;;83.55;43.42;;;;;;;0.17;85.71;100241.73;1857314;77;21059;-83
2021/01/14 01:26:52;;;;;;;84.58;44.27;;;;;;;0.17;85.81;100245.20;1857473;77;21130;-83
2021/01/14 01:29:20;;;;;;;80.20;40.73;;;;;;;0.15;85.79;100248.11;1857508;77;21134;-84
2021/01/14 01:31:47;;;;;;;84.47;42.70;;;;;;;0.11;85.65;100242.27;1847956;75;21182;-84
2021/01/14 01:34:15;;;;;;;76.82;40.48;;;;;;;0.04;85.56;100245.30;1823691;77;21879;-84
2021/01/14 01:36:43;;;;;;;72.20;40.17;;;;;;;-0.05;85.53;100243.05;1823541;78;21174;-84
2021/01/14 01:39:10;;;;;;;76.10;40.88;;;;;;;-0.13;85.51;100244.30;1826122;78;21150;-84
2021/01/14 01:41:40;;;;;;;77.25;40.23;;;;;;;-0.20;85.49;100239.15;1826759;78;21150;-84
2021/01/14 01:44:07;;;;;;;76.60;42.13;;;;;;;-0.29;85.51;100243.77;1826804;78;21158;-83
2021/01/14 01:46:34;;;;;;;76.33;42.35;;;;;;;-0.35;85.50;100252.88;1832118;75;21865;-83
2021/01/14 01:49:01;;;;;;;76.30;40.30;;;;;;;-0.42;85.60;100253.77;1815290;78;21691;-83
2021/01/14 01:51:34;;;;;;;80.17;42.08;;;;;;;-0.47;85.64;100250.03;1827526;78;21175;-83
2021/01/14 01:54:01;;;;;;;86.22;43.50;;;;;;;-0.51;85.71;100254.91;1827687;78;21179;-85
2021/01/14 01:56:29;;;;;;;76.00;41.85;;;;;;;-0.56;85.70;100266.65;1827594;78;21586;-82
2021/01/14 01:58:57;;;;;;;79.72;41.85;;;;;;;-0.63;85.75;100258.53;1827616;78;21884;-84
2021/01/14 02:01:27;;;;;;;82.67;42.98;;;;;;;-0.65;85.89;100257.55;1827853;78;21065;-83
2021/01/14 02:03:55;;;;;;;80.42;42.30;;;;;;;-0.67;85.82;100268.19;1827651;78;21136;-84
2021/01/14 02:06:22;;;;;;;78.75;42.75;;;;;;;-0.69;85.82;100263.33;1827793;78;21120;-84
2021/01/14 02:08:53;;;;;;;91.47;44.60;;;;;;;-0.73;85.75;100260.06;1827769;78;21650;-86
2021/01/14 02:11:25;;;;;;;98.05;47.50;;;;;;;-0.75;85.80;100268.13;1827753;78;21893;-82
2021/01/14 02:14:15;;;;;;;96.92;48.95;;;;;;;-0.79;85.73;100269.62;1827417;78;21172;-84
2021/01/14 02:16:43;;;;;;;97.05;49.77;;;;;;;-0.85;85.73;100272.20;1827476;78;21140;-84
2021/01/14 02:19:24;;;;;;;104.60;52.15;;;;;;;-0.92;85.72;100277.41;1827399;78;21591;-83
2021/01/14 02:21:57;;;;;;;98.75;51.08;;;;;;;-0.97;85.75;100276.62;1827287;78;21128;-84
2021/01/14 02:24:34;;;;;;;93.33;48.45;;;;;;;-1.03;85.83;100282.30;1827699;78;21965;-84
2021/01/14 02:27:01;;;;;;;89.85;46.68;;;;;;;-1.09;85.92;100282.80;1827346;78;21558;-84
2021/01/14 02:29:29;;;;;;;89.70;45.60;;;;;;;-1.13;85.99;100291.11;1827616;78;21148;-84
2021/01/14 02:31:56;;;;;;;83.00;41.80;;;;;;;-1.18;86.04;100296.00;1802260;78;21682;-84
2021/01/14 02:34:23;;;;;;;76.22;41.42;;;;;;;-1.24;86.08;100286.95;1827568;78;21537;-84
2021/01/14 02:36:50;;;;;;;83.72;42.38;;;;;;;-1.27;86.12;100295.81;1827546;78;21949;-83
2021/01/14 02:39:17;;;;;;;79.25;39.75;;;;;;;-1.30;86.11;100303.34;1822440;78;21145;-83
2021/01/14 02:41:48;;;;;;;78.25;39.58;;;;;;;-1.33;86.12;100305.72;1820822;78;21172;-83
2021/01/14 02:44:15;;;;;;;73.20;37.00;;;;;;;-1.38;86.11;100309.30;1820935;78;21196;-84
2021/01/14 02:46:42;;;;;;;69.07;35.95;;;;;;;-1.39;86.15;100311.37;1820801;78;22193;-84
2021/01/14 02:49:09;;;;;;;73.10;37.25;;;;;;;-1.41;86.22;100317.76;1820782;78;21818;-84
2021/01/14 02:51:47;;;;;;;74.62;35.95;;;;;;;-1.42;86.26;100322.41;1820846;78;21170;-84
2021/01/14 02:54:15;;;;;;;70.25;33.40;;;;;;;-1.44;86.21;100321.41;1820324;78;21215;-83
2021/01/14 02:57:00;;;;;;;67.50;35.25;;;;;;;-1.47;86.17;100319.91;1820734;78;21453;-83
2021/01/14 02:59:34;;;;;;;67.82;33.98;;;;;;;-1.48;86.15;100322.39;1820793;78;21156;-83
2021/01/14 03:02:01;;;;;;;;;;;;;;;-1.51;86.04;100325.67;1823372;78;21887;-84
2021/01/14 03:04:28;;;;;;;77.27;36.68;;;;;;;-1.55;85.97;100325.38;1820756;78;20483;-84
2021/01/14 03:07:13;;;;;;;69.65;35.90;;;;;;;-1.57;85.97;100329.14;1820965;78;21183;-84
2021/01/14 03:10:07;;;;;;;67.32;36.30;;;;;;;-1.57;85.95;100328.73;1889006;76;22355;-85
2021/01/14 03:12:44;;;;;;;73.05;36.45;;;;;;;-1.62;85.92;100327.53;1811128;77;22435;-85
2021/01/14 03:15:12;;;;;;;71.70;35.43;;;;;;;-1.69;85.90;100333.47;1796983;79;21192;-84
2021/01/14 03:18:09;;;;;;;71.17;35.55;;;;;;;-1.71;85.99;100332.48;1797110;79;21897;-85
2021/01/14 03:20:36;;;;;;;70.47;35.43;;;;;;;-1.71;86.00;100344.09;1797083;79;21613;-84
2021/01/14 03:23:03;;;;;;;66.02;34.08;;;;;;;-1.69;86.15;100342.50;1797037;79;21147;-83
2021/01/14 03:25:30;;;;;;;67.27;34.13;;;;;;;-1.64;86.28;100338.55;1797055;79;21160;-84
2021/01/14 03:27:57;;;;;;;67.00;34.40;;;;;;;-1.57;86.36;100342.05;1797069;79;21240;-84
2021/01/14 03:30:29;;;;;;;64.50;33.67;;;;;;;-1.49;86.44;100349.89;1797152;79;22882;-85
2021/01/14 03:32:57;;;;;;;71.45;34.23;;;;;;;-1.39;86.56;100352.69;1797161;79;21613;-85
2021/01/14 03:35:24;;;;;;;66.15;33.63;;;;;;;-1.27;86.64;100352.62;1797178;79;21097;-84
2021/01/14 03:37:52;;;;;;;60.12;32.23;;;;;;;-1.19;86.57;100356.59;1797003;79;21634;-85
2021/01/14 03:40:19;;;;;;;60.78;31.75;;;;;;;-1.11;86.55;100356.67;1796913;79;21661;-85
2021/01/14 03:42:46;;;;;;;60.00;32.58;;;;;;;-1.03;86.53;100358.49;1797128;79;22061;-85
2021/01/14 03:45:13;;;;;;;56.00;31.25;;;;;;;-0.97;86.49;100364.45;1797032;79;21135;-85
2021/01/14 03:47:40;;;;;;;56.48;30.02;;;;;;;-0.89;86.45;100369.70;1797152;79;21112;-85
2021/01/14 03:50:09;;;;;;;58.85;31.17;;;;;;;-0.82;86.43;100366.31;1797073;79;21207;-86
2021/01/14 03:52:36;;;;;;;57.27;30.60;;;;;;;-0.75;86.35;100371.87;1797027;79;21304;-86
2021/01/14 03:55:03;;;;;;;56.08;29.85;;;;;;;-0.70;86.30;100367.90;1797058;79;21957;-85
2021/01/14 03:57:36;;;;;;;51.50;29.70;;;;;;;-0.66;86.22;100363.41;1764391;81;21124;-84
2021/01/14 04:00:07;;;;;;;59.73;32.67;;;;;;;-0.64;86.13;100366.98;1789005;80;21164;-84
2021/01/14 04:02:34;;;;;;;53.23;29.00;;;;;;;-0.61;86.09;100373.66;1788164;80;21184;-84
2021/01/14 04:05:01;;;;;;;54.00;30.52;;;;;;;-0.59;86.00;100378.52;1788612;80;21519;-84
2021/01/14 04:07:28;;;;;;;58.10;31.10;;;;;;;-0.57;85.99;100383.80;1788642;80;21953;-84
2021/01/14 04:09:55;;;;;;;56.00;32.67;;;;;;;-0.56;85.92;100381.31;1788608;80;21223;-84
2021/01/14 04:12:29;;;;;;;54.88;30.68;;;;;;;-0.53;85.94;100384.48;1782544;80;21184;-84
2021/01/14 04:14:58;;;;;;;;;;;;;;;-0.52;85.94;100388.45;1791192;80;21223;-84
2021/01/14 04:17:26;;;;;;;50.78;27.98;;;;;;;-0.48;85.81;100392.14;1788696;80;20254;-84
2021/01/14 04:19:54;;;;;;;51.18;27.22;;;;;;;-0.49;85.80;100397.71;1788626;80;21989;-85
2021/01/14 04:22:21;;;;;;;49.77;28.23;;;;;;;-0.43;86.02;100398.09;1788439;79;21187;-84
2021/01/14 04:24:48;;;;;;;43.42;23.70;;;;;;;-0.38;86.08;100399.66;1788130;79;21121;-83
2021/01/14 04:27:18;;;;;;;46.33;25.23;;;;;;;-0.31;86.17;100403.13;1787991;80;21582;-84
2021/01/14 04:29:45;;;;;;;45.40;24.25;;;;;;;-0.27;86.23;100401.63;1788155;79;21144;-84
2021/01/14 04:32:12;;;;;;;37.17;20.35;;;;;;;-0.20;86.42;100411.56;1788105;80;22091;-85
2021/01/14 04:34:39;;;;;;;42.43;23.15;;;;;;;-0.16;86.42;100413.95;1788029;80;21196;-84
2021/01/14 04:37:06;;;;;;;43.23;23.75;;;;;;;-0.11;86.49;100421.58;1787987;80;21183;-84
2021/01/14 04:39:33;;;;;;;42.85;23.05;;;;;;;-0.12;86.55;100424.57;1787944;80;21144;-84
2021/01/14 04:42:01;;;;;;;35.85;21.55;;;;;;;-0.08;86.82;100426.54;1787996;79;21121;-84
2021/01/14 04:44:28;;;;;;;33.30;19.40;;;;;;;0.01;87.17;100433.99;1787943;80;21875;-84
2021/01/14 04:47:04;;;;;;;30.02;18.32;;;;;;;0.05;87.57;100438.55;1788101;80;21586;-85
2021/01/14 04:49:31;;;;;;;29.00;15.30;;;;;;;0.09;87.77;100436.64;1797513;78;21520;-85
2021/01/14 04:52:04;;;;;;;27.77;14.45;;;;;;;0.12;88.12;100431.66;1812954;79;21172;-85
2021/01/14 04:54:34;;;;;;;29.52;14.80;;;;;;;0.21;88.25;100433.02;1812989;79;21145;-85
2021/01/14 04:57:05;;;;;;;26.93;16.07;;;;;;;0.24;88.12;100436.69;1779396;80;21946;-88
2021/01/14 04:59:37;;;;;;;30.75;16.48;;;;;;;0.32;88.18;100438.45;1779508;79;21455;-85
2021/01/14 05:02:04;;;;;;;25.70;15.20;;;;;;;0.38;88.21;100442.32;1758452;80;21180;-84
2021/01/14 05:04:31;;;;;;;28.07;14.83;;;;;;;0.49;88.21;100445.56;1757117;80;21165;-85
2021/01/14 05:06:58;;;;;;;33.55;19.07;;;;;;;0.61;88.27;100436.74;1733532;82;21167;-85
2021/01/14 05:09:32;;;;;;;28.80;17.87;;;;;;;0.69;88.17;100432.90;1732177;82;21970;-83
2021/01/14 05:12:05;;;;;;;33.83;18.95;;;;;;;0.76;88.08;100432.47;1733288;82;21287;-85
2021/01/14 05:14:36;;;;;;;37.17;21.52;;;;;;;0.83;87.92;100437.63;1791245;80;21168;-83
2021/01/14 05:17:03;;;;;;;42.80;23.50;;;;;;;0.89;87.78;100441.45;1721211;82;21140;-84
2021/01/14 05:19:31;;;;;;;43.20;24.52;;;;;;;0.91;87.45;100441.13;1779453;80;21610;-85
2021/01/14 05:21:59;;;;;;;50.67;29.30;;;;;;;0.93;87.23;100449.00;1779660;80;21981;-87
2021/01/14 05:24:27;;;;;;;46.08;26.12;;;;;;;0.94;87.10;100452.98;1779735;80;21165;-85
2021/01/14 05:26:56;;;;;;;42.93;24.07;;;;;;;0.98;87.14;100456.66;1779622;80;21239;-85
2021/01/14 05:29:23;;;;;;;39.27;22.07;;;;;;;1.00;87.05;100455.04;1779702;80;21203;-86
2021/01/14 05:31:50;;;;;;;41.00;23.00;;;;;;;1.03;86.98;100458.20;1779637;80;21137;-86
2021/01/14 05:34:18;;;;;;;40.03;21.37;;;;;;;1.03;86.84;100464.27;1779743;80;21910;-85
2021/01/14 05:37:03;;;;;;;28.67;15.55;;;;;;;1.03;86.77;100466.86;1779690;80;21217;-84
2021/01/14 05:39:30;;;;;;;27.45;13.80;;;;;;;1.05;86.89;100466.58;1779674;80;21077;-83
2021/01/14 05:41:57;;;;;;;29.95;12.98;;;;;;;1.09;87.09;100477.61;1779480;80;21224;-82
2021/01/14 05:44:38;;;;;;;19.73;11.25;;;;;;;1.12;87.16;100480.77;1747173;80;21132;-85
2021/01/14 05:47:24;;;;;;;25.00;12.18;;;;;;;1.16;87.27;100484.03;1779514;80;21970;-85
2021/01/14 05:50:00;;;;;;;21.42;11.22;;;;;;;1.18;87.24;100478.53;1779548;80;22044;-81
2021/01/14 05:52:29;;;;;;;19.92;10.63;;;;;;;1.24;87.35;100478.91;1779407;80;21155;-80
2021/01/14 05:58:03;;;;;;;18.65;9.55;;;;;;;1.38;87.35;100480.10;1889175;76;22716;-87
2021/01/14 06:00:35;;;;;;;16.82;9.35;;;;;;;1.36;87.33;100487.38;1857324;77;21151;-86
2021/01/14 06:03:26;;;;;;;16.77;9.55;;;;;;;1.36;87.28;100493.86;1857014;77;21886;-86
2021/01/14 06:05:54;;;;;;;17.73;10.68;;;;;;;1.36;87.33;100493.86;1856753;77;21165;-85
2021/01/14 06:08:26;;;;;;;15.58;10.85;;;;;;;1.40;87.30;100506.60;1857157;76;21186;-85
2021/01/14 06:10:56;;;;;;;16.62;11.45;;;;;;;1.45;87.41;100510.78;1857285;77;21130;-85
2021/01/14 06:13:39;;;;;;;18.87;12.63;;;;;;;1.50;87.39;100514.13;1857200;77;21197;-85
2021/01/14 06:16:06;;;;;;;18.15;12.25;;;;;;;1.48;87.17;100522.22;1826027;77;22758;-82
2021/01/14 06:18:33;;;;;;;20.90;14.07;;;;;;;1.44;87.04;100524.53;1856927;76;21182;-81
2021/01/14 06:21:00;;;;;;;27.37;15.78;;;;;;;1.39;87.01;100533.73;1857002;77;21574;-79
2021/01/14 06:23:27;;;;;;;27.50;16.35;;;;;;;1.37;87.06;100542.75;1856873;77;21589;-80
2021/01/14 06:25:55;;;;;;;30.40;17.45;;;;;;;1.36;87.07;100548.73;1857079;77;21592;-81
2021/01/14 06:28:27;;;;;;;32.45;19.62;;;;;;;1.35;87.05;100545.25;1857357;77;21917;-85
2021/01/14 06:31:02;;;;;;;30.25;19.90;;;;;;;1.32;86.93;100549.36;1854761;77;21147;-83
2021/01/14 06:33:30;;;;;;;37.58;21.97;;;;;;;1.29;86.91;100545.28;1857297;77;21150;-84
2021/01/14 06:36:12;;;;;;;39.58;22.58;;;;;;;1.26;86.86;100550.27;1857420;77;21119;-84
2021/01/14 06:38:47;;;;;;;37.60;23.20;;;;;;;1.26;86.97;100561.94;1857398;77;21251;-84
2021/01/14 06:41:20;;;;;;;44.93;25.17;;;;;;;1.28;86.96;100574.21;1857362;77;21876;-84
2021/01/14 06:43:49;;;;;;;44.67;24.52;;;;;;;1.24;86.84;100581.70;1857560;77;21127;-84
2021/01/14 06:46:22;;;;;;;43.78;24.67;;;;;;;1.24;86.96;100585.21;1857465;77;21589;-84
2021/01/14 06:49:12;;;;;;;43.13;24.72;;;;;;;1.24;86.92;100588.18;1857553;77;21719;-84
2021/01/14 06:54:39;;;;;;;40.48;27.98;;;;;;;1.21;86.95;100609.65;1823886;77;27924;-85
2021/01/14 06:57:15;;;;;;;40.52;25.77;;;;;;;1.16;87.04;100608.47;1819911;78;21343;-85
2021/01/14 06:59:42;;;;;;;45.80;29.60;;;;;;;1.18;86.86;100619.82;1814924;78;21321;-85
2021/01/14 07:02:35;;;;;;;50.78;34.35;;;;;;;1.16;86.94;100619.76;1807998;78;21152;-85
2021/01/14 07:05:06;;;;;;;51.60;34.27;;;;;;;1.22;87.13;100630.90;1790245;78;21131;-85
2021/01/14 07:07:52;;;;;;;51.30;32.55;;;;;;;1.23;86.98;100631.78;1790145;80;21080;-85
2021/01/14 07:10:19;;;;;;;43.68;26.87;;;;;;;1.20;86.87;100642.84;1790117;79;21588;-85
2021/01/14 07:12:46;;;;;;;44.83;27.22;;;;;;;1.21;87.01;100648.95;1745087;80;21886;-85
2021/01/14 07:15:18;;;;;;;45.03;27.93;;;;;;;1.23;86.99;100657.72;1790058;80;21169;-85
2021/01/14 07:17:48;;;;;;;49.85;29.80;;;;;;;1.20;86.85;100662.29;1790243;80;21141;-85
2021/01/14 07:20:16;;;;;;;56.70;32.63;;;;;;;1.15;86.80;100668.50;1790142;80;21781;-85
2021/01/14 07:22:59;;;;;;;51.40;31.07;;;;;;;1.12;86.75;100668.30;1790147;80;21140;-84
2021/01/14 07:25:27;;;;;;;42.43;27.05;;;;;;;0.95;86.77;100651.72;1790319;80;21922;-84
2021/01/14 07:27:54;;;;;;;36.63;23.12;;;;;;;1.13;86.95;100677.89;1770410;79;21133;-84
2021/01/14 07:30:21;;;;;;;46.77;26.93;;;;;;;1.08;86.59;100682.30;1790120;80;21168;-83
2021/01/14 07:33:05;;;;;;;40.60;26.23;;;;;;;1.02;86.58;100690.59;1789988;80;21240;-83
2021/01/14 07:35:41;;;;;;;36.63;23.45;;;;;;;1.03;86.76;100697.55;1790279;79;21156;-83
2021/01/14 07:38:17;;;;;;;37.08;23.62;;;;;;;1.04;86.69;100704.95;1790090;79;21888;-84
2021/01/14 07:40:45;;;;;;;41.80;24.82;;;;;;;1.04;86.71;100708.42;1790129;80;21125;-84
2021/01/14 07:43:14;;;;;;;35.20;22.00;;;;;;;1.10;86.75;100715.69;1790147;79;21588;-84
2021/01/14 07:45:41;;;;;;;35.58;23.55;;;;;;;1.16;86.84;100717.36;1790218;80;21235;-83
2021/01/14 07:48:23;;;;;;;36.00;22.22;;;;;;;1.22;86.71;100718.13;1770132;80;21180;-85
2021/01/14 07:50:58;;;;;;;36.95;22.93;;;;;;;1.21;86.44;100718.55;1770304;80;21887;-85
2021/01/14 07:53:26;;;;;;;36.03;21.82;;;;;;;1.23;86.47;100727.31;1789652;79;21586;-85
2021/01/14 07:55:56;;;;;;;34.00;20.90;;;;;;;1.30;86.60;100728.59;1790049;80;21710;-84
2021/01/14 07:58:30;;;;;;;39.27;22.35;;;;;;;1.34;86.43;100730.16;1789857;80;21212;-84
2021/01/14 08:01:07;;;;;;;34.15;20.75;;;;;;;1.43;86.55;100738.03;1767521;80;21567;-84
2021/01/14 08:03:42;;;;;;;31.97;19.83;;;;;;;1.51;86.46;100741.98;1790445;80;22840;-85
2021/01/14 08:06:44;;;;;;;31.97;20.43;;;;;;;1.50;86.04;100753.14;1789009;79;21610;-85
2021/01/14 08:09:08;;;;;;;35.00;20.12;;;;;;;1.49;86.14;100750.08;1788817;79;21093;-84
2021/01/14 08:11:50;;;;;;;32.60;20.85;;;;;;;1.51;85.98;100754.95;1789488;80;21132;-85
2021/01/14 08:14:22;;;;;;;37.10;21.48;;;;;;;1.53;85.93;100765.91;1789525;80;21213;-85
2021/01/14 08:16:55;;;;;;;34.15;22.35;;;;;;;1.50;85.68;100767.41;1789514;80;21874;-85
2021/01/14 08:19:32;;;;;;;37.63;23.47;;;;;;;1.48;85.63;100771.23;1789433;79;21289;-83
2021/01/14 08:22:10;;;;;;;43.52;24.57;;;;;;;1.48;85.50;100778.09;1785830;79;21112;-83
2021/01/14 08:24:50;;;;;;;41.77;27.35;;;;;;;1.51;85.66;100786.97;1789511;79;21569;-84
2021/01/14 08:27:34;;;;;;;49.08;27.87;;;;;;;1.57;85.60;100785.56;1789327;79;21164;-84
2021/01/14 08:30:06;;;;;;;44.70;27.85;;;;;;;1.62;85.48;100789.34;1789513;79;22854;-83
2021/01/14 08:32:50;;;;;;;41.68;27.95;;;;;;;1.69;85.36;100795.00;1789297;80;21204;-84
2021/01/14 08:35:22;;;;;;;43.58;28.45;;;;;;;1.70;85.13;100795.47;1789493;80;21666;-84
2021/01/14 08:37:52;;;;;;;41.35;25.17;;;;;;;1.69;85.10;100806.68;1789173;78;21642;-85
2021/01/14 08:40:31;;;;;;;39.55;23.57;;;;;;;1.70;85.12;100808.86;1789462;78;21598;-84
2021/01/14 08:43:16;;;;;;;34.08;20.97;;;;;;;1.68;85.06;100818.25;1789471;80;22798;-84
2021/01/14 08:45:56;;;;;;;35.80;20.85;;;;;;;1.66;84.99;100824.64;1789403;80;21159;-84
2021/01/14 08:48:29;;;;;;;32.50;20.95;;;;;;;1.65;85.00;100830.65;1789422;80;21615;-85
2021/01/14 08:51:02;;;;;;;34.38;20.52;;;;;;;1.68;85.04;100829.93;1769908;80;21136;-84
2021/01/14 08:53:35;;;;;;;36.53;22.05;;;;;;;1.68;85.05;100836.01;1791427;79;21140;-85
2021/01/14 08:56:16;;;;;;;40.93;23.90;;;;;;;1.71;84.97;100845.30;1796180;79;22790;-84
2021/01/14 08:58:46;;;;;;;44.73;28.23;;;;;;;1.71;84.93;100850.48;1795713;78;21902;-84
2021/01/14 09:01:21;;;;;;;45.83;27.93;;;;;;;1.73;84.82;100859.25;1795981;79;21172;-84
2021/01/14 09:03:50;;;;;;;45.52;28.98;;;;;;;1.73;84.74;100859.25;1795954;79;21591;-85
2021/01/14 09:06:19;;;;;;;46.55;26.12;;;;;;;1.79;84.82;100859.15;1795941;79;21576;-84
2021/01/14 09:08:54;;;;;;;41.20;25.82;;;;;;;1.87;84.87;100867.87;1767862;79;21891;-84
2021/01/14 09:11:25;;;;;;;44.58;27.67;;;;;;;1.96;84.71;100870.57;1795575;79;21261;-84
2021/01/14 09:14:14;;;;;;;41.28;26.12;;;;;;;2.01;84.33;100871.72;1795914;79;21332;-85
2021/01/14 09:16:44;;;;;;;52.05;30.80;;;;;;;2.04;84.47;100870.21;1795486;79;21152;-85
2021/01/14 09:19:27;;;;;;;50.78;32.53;;;;;;;2.13;84.38;100884.17;1795748;79;21181;-84
2021/01/14 09:21:54;;;;;;;54.13;30.95;;;;;;;2.18;84.25;100886.66;1796020;79;21910;-84
2021/01/14 09:24:21;;;;;;;49.83;30.43;;;;;;;2.22;84.11;100888.63;1795924;79;21185;-84
2021/01/14 09:26:50;;;;;;;51.15;28.90;;;;;;;2.22;84.04;100892.52;1796045;79;21137;-84
2021/01/14 09:29:19;;;;;;;43.90;27.98;;;;;;;2.21;83.64;100893.72;1796077;79;21181;-84
2021/01/14 09:31:47;;;;;;;45.85;27.20;;;;;;;2.18;83.56;100893.14;1795929;79;21149;-84
2021/01/14 09:34:14;;;;;;;40.08;27.25;;;;;;;2.17;83.49;100903.02;1795776;79;22880;-84
2021/01/14 09:36:42;;;;;;;42.43;27.50;;;;;;;2.18;83.43;100903.53;1795799;79;21548;-84
2021/01/14 09:39:14;;;;;;;42.88;27.05;;;;;;;2.17;83.30;100904.73;1796062;79;21133;-84
2021/01/14 09:41:45;;;;;;;42.27;28.70;;;;;;;2.12;83.11;100912.22;1796004;79;21168;-84
2021/01/14 09:44:14;;;;;;;40.88;28.10;;;;;;;1.97;83.05;100900.52;1795747;79;21160;-84
2021/01/14 09:46:43;;;;;;;23.67;16.80;;;;;;;2.01;83.14;100928.46;1795858;78;22395;-84
2021/01/14 09:49:14;;;;;;;21.65;15.23;;;;;;;1.90;82.80;100928.20;1795847;79;21175;-84
2021/01/14 09:51:43;;;;;;;19.45;14.33;;;;;;;1.63;82.48;100909.17;1795912;79;21128;-84
2021/01/14 09:56:54;;;;;;;21.20;14.60;;;;;;;1.76;82.53;100941.58;1811056;78;23431;-85
2021/01/14 09:59:37;;;;;;;25.17;14.30;;;;;;;1.65;82.36;100942.59;1796845;79;21144;-85
2021/01/14 10:02:26;;;;;;;21.35;15.03;;;;;;;1.61;82.46;100953.17;1796864;79;21881;-85
2021/01/14 10:05:01;;;;;;;29.72;21.17;;;;;;;1.55;82.34;100960.17;1796898;79;21144;-84
2021/01/14 10:07:33;;;;;;;22.80;16.15;;;;;;;1.46;82.13;100959.98;1796992;79;21558;-87
2021/01/14 10:10:01;;;;;;;21.27;14.50;;;;;;;1.37;81.84;100957.70;1796903;79;21180;-85
2021/01/14 10:12:32;;;;;;;21.57;14.38;;;;;;;1.35;82.11;100967.98;1796947;79;21127;-84
2021/01/14 10:15:15;;;;;;;20.25;13.78;;;;;;;1.38;82.07;100976.34;1796253;79;21960;-84
2021/01/14 10:17:43;;;;;;;21.77;13.83;;;;;;;1.32;81.83;100978.14;1796911;79;21606;-84
2021/01/14 10:20:12;;;;;;;20.72;14.28;;;;;;;1.24;81.46;100984.53;1796862;79;21171;-84
2021/01/14 10:22:53;;;;;;;25.50;15.23;;;;;;;1.22;81.72;100974.83;1796927;79;21119;-83
2021/01/14 10:25:21;;;;;;;22.77;14.90;;;;;;;1.26;81.70;100979.05;1796737;79;21151;-84
2021/01/14 10:28:03;;;;;;;20.88;13.43;;;;;;;1.24;81.39;100987.13;1763567;79;21786;-84
2021/01/14 10:30:31;;;;;;;21.20;13.35;;;;;;;1.21;81.43;100992.09;1764367;79;21223;-84
2021/01/14 10:33:05;;;;;;;17.05;11.95;;;;;;;1.20;81.31;100992.87;1788398;80;21599;-82
2021/01/14 10:35:33;;;;;;;17.67;12.37;;;;;;;1.19;81.46;100995.39;1788265;80;21220;-83
2021/01/14 10:38:16;;;;;;;20.37;13.45;;;;;;;1.13;81.14;100998.06;1788177;80;21156;-82
2021/01/14 10:40:48;;;;;;;15.23;11.15;;;;;;;1.06;81.14;101004.93;1788429;80;21899;-82
2021/01/14 10:43:30;;;;;;;18.32;11.78;;;;;;;1.04;81.20;101004.34;1758698;80;21198;-82
2021/01/14 10:45:57;;;;;;;19.02;13.60;;;;;;;1.01;81.33;100998.94;1788398;80;21582;-83
2021/01/14 10:48:24;;;;;;;20.15;13.62;;;;;;;1.03;81.36;101008.59;1788584;80;21334;-83
2021/01/14 10:50:53;;;;;;;20.55;15.28;;;;;;;1.01;81.24;101005.42;1779116;80;21630;-83
2021/01/14 10:53:37;;;;;;;23.05;15.32;;;;;;;0.99;81.35;101007.01;1788415;80;21890;-83
2021/01/14 10:56:13;;;;;;;23.42;15.50;;;;;;;0.99;81.33;101014.78;1784004;80;21204;-83
2021/01/14 10:58:40;;;;;;;52.80;29.25;;;;;;;0.93;81.14;101009.67;1788403;80;21164;-83
2021/01/14 11:01:19;;;;;;;65.60;32.70;;;;;;;0.89;81.26;101014.16;1788425;80;21164;-83
2021/01/14 11:03:46;;;;;;;32.45;20.30;;;;;;;0.92;81.45;101015.67;1788380;80;21100;-83
2021/01/14 11:06:31;;;;;;;48.83;27.40;;;;;;;0.93;81.39;101013.56;1788373;80;21897;-83
2021/01/14 11:09:10;;;;;;;65.97;42.73;;;;;;;0.93;81.36;101019.16;1787828;80;21168;-83
2021/01/14 11:11:38;;;;;;;105.67;74.90;;;;;;;0.94;81.42;101020.97;1787991;80;21219;-83
2021/01/14 11:14:06;;;;;;;27.17;19.48;;;;;;;0.94;81.31;101024.45;1787836;80;21643;-83
2021/01/14 11:16:33;;;;;;;25.35;16.93;;;;;;;0.87;81.06;101017.45;1787971;79;21231;-83
2021/01/14 11:19:01;;;;;;;19.85;14.05;;;;;;;0.82;81.13;101031.38;1787889;80;21708;-83
2021/01/14 11:21:34;;;;;;;43.38;27.87;;;;;;;0.76;81.16;101021.48;1787769;80;21200;-83
2021/01/14 11:24:02;;;;;;;;;;;;;;;0.75;81.13;101029.15;1790517;80;21136;-83
2021/01/14 11:26:30;;;;;;;44.88;29.20;;;;;;;0.73;81.35;101037.22;1787822;80;20259;-83
2021/01/14 11:28:57;;;;;;;36.53;23.47;;;;;;;0.73;81.34;101043.70;1787712;80;21180;-83
2021/01/14 11:31:26;;;;;;;32.45;22.30;;;;;;;0.72;81.34;101039.33;1787609;80;21889;-83
2021/01/14 11:33:53;;;;;;;18.25;13.20;;;;;;;0.65;81.02;101045.76;1787697;79;21578;-84
2021/01/14 11:39:05;;;;;;;21.20;14.83;;;;;;;0.58;80.79;101055.19;1814193;78;23447;-84
2021/01/14 11:41:32;;;;;;;18.45;12.05;;;;;;;0.52;80.87;101054.36;1786052;80;21275;-80
2021/01/14 11:43:59;;;;;;;17.05;12.58;;;;;;;0.50;80.49;101070.20;1785901;80;21884;-81
2021/01/14 11:46:26;;;;;;;14.10;10.50;;;;;;;0.40;80.32;101061.29;1786184;80;21763;-83
2021/01/14 11:48:53;;;;;;;14.73;10.78;;;;;;;0.36;80.30;101067.05;1786382;80;21117;-85